createdAt,value
2022-09-07T00:00:13.265Z,99817.16
2022-09-07T00:02:42.525Z,99811.31
2022-09-07T00:05:12.143Z,99828.00
2022-09-07T00:07:41.350Z,99799.88
2022-09-07T00:10:11.297Z,99818.16
2022-09-07T00:12:40.688Z,99790.78
2022-09-07T00:15:13.346Z,99806.75
2022-09-07T00:17:42.255Z,99798.41
2022-09-07T00:20:13.418Z,99801.28
2022-09-07T00:22:42.556Z,99803.56
2022-09-07T00:25:11.737Z,99809.56
2022-09-07T00:27:41.427Z,99805.63
2022-09-07T00:30:13.210Z,99802.06
2022-09-07T00:32:42.365Z,99803.66
2022-09-07T00:35:12.785Z,99802.13
2022-09-07T00:37:41.933Z,99813.97
2022-09-07T00:40:11.870Z,99801.72
2022-09-07T00:42:41.136Z,99800.16
2022-09-07T00:45:17.880Z,99788.63
2022-09-07T00:47:55.912Z,99781.06
2022-09-07T00:50:30.263Z,99783.53
2022-09-07T00:53:06.331Z,99781.66
2022-09-07T00:55:39.388Z,99781.66
2022-09-07T00:58:09.550Z,99778.50
2022-09-07T01:00:42.488Z,99776.22
2022-09-07T01:03:12.780Z,99780.97
2022-09-07T01:05:47.504Z,99771.47
2022-09-07T01:08:17.413Z,99775.44
2022-09-07T01:10:47.510Z,99762.38
2022-09-07T01:13:16.691Z,99764.66
2022-09-07T01:15:59.508Z,99738.03
2022-09-07T01:18:37.345Z,99759.44
2022-09-07T01:21:26.535Z,99775.31
2022-09-07T01:24:42.547Z,99767.53
2022-09-07T01:27:56.866Z,99760.34
2022-09-07T01:30:26.935Z,99767.94
2022-09-07T01:33:24.194Z,99774.31
2022-09-07T01:36:07.059Z,99762.00
2022-09-07T01:38:39.593Z,99770.75
2022-09-07T01:41:16.589Z,99768.00
2022-09-07T01:43:53.884Z,99749.38
2022-09-07T01:46:31.245Z,99760.50
2022-09-07T01:49:10.585Z,99753.34
2022-09-07T01:51:46.223Z,99748.91
2022-09-07T01:54:23.584Z,99747.78
2022-09-07T01:56:59.710Z,99752.41
2022-09-07T01:59:35.430Z,99756.34
2022-09-07T02:02:10.318Z,99750.44
2022-09-07T02:04:44.812Z,99757.53
2022-09-07T02:07:21.741Z,99740.03
2022-09-07T02:09:58.163Z,99737.75
2022-09-07T02:12:38.466Z,99738.06
2022-09-07T02:15:15.858Z,99734.16
2022-09-07T02:17:49.660Z,99738.44
2022-09-07T02:20:23.899Z,99735.28
2022-09-07T02:22:57.421Z,99736.06
2022-09-07T02:25:30.697Z,99735.28
2022-09-07T02:28:06.393Z,99736.47
2022-09-07T02:30:37.183Z,99726.97
2022-09-07T02:33:06.856Z,99732.94
2022-09-07T02:35:36.690Z,99727.75
2022-09-07T02:38:08.542Z,99724.22
2022-09-07T02:40:37.853Z,99736.47
2022-09-07T02:43:09.950Z,99732.81
2022-09-07T02:45:58.753Z,99744.66
2022-09-07T02:48:40.600Z,99745.00
2022-09-07T02:51:19.071Z,99735.13
2022-09-07T02:54:25.401Z,99747.34
2022-09-07T02:57:06.450Z,99741.88
2022-09-07T02:59:49.646Z,99715.72
2022-09-07T03:02:30.503Z,99730.03
2022-09-07T03:05:06.945Z,99728.06
2022-09-07T03:07:44.144Z,99726.91
2022-09-07T03:10:17.069Z,99729.69
2022-09-07T03:12:47.907Z,99715.00
2022-09-07T03:15:19.895Z,99737.22
2022-09-07T03:17:50.563Z,99731.31
2022-09-07T03:20:21.196Z,99728.88
2022-09-07T03:22:52.819Z,99724.91
2022-09-07T03:25:22.985Z,99731.69
2022-09-07T03:27:52.251Z,99730.53
2022-09-07T03:30:21.729Z,99715.88
2022-09-07T03:32:52.801Z,99725.78
2022-09-07T03:35:22.592Z,99704.34
2022-09-07T03:37:51.953Z,99727.38
2022-09-07T03:40:21.317Z,99721.38
2022-09-07T03:42:51.193Z,99728.41
2022-09-07T03:45:20.961Z,99712.59
2022-09-07T03:47:51.525Z,99718.16
2022-09-07T03:50:20.739Z,99719.41
2022-09-07T03:52:49.921Z,99700.69
2022-09-07T03:55:19.134Z,99721.31
2022-09-07T03:57:48.417Z,99722.16
2022-09-07T04:00:18.004Z,99726.88
2022-09-07T04:02:47.184Z,99731.63
2022-09-07T04:05:18.265Z,99722.91
2022-09-07T04:07:49.802Z,99726.91
2022-09-07T04:10:19.235Z,99732.03
2022-09-07T04:12:48.409Z,99730.06
2022-09-07T04:15:17.826Z,99706.22
2022-09-07T04:17:47.088Z,99728.94
2022-09-07T04:20:17.845Z,99708.69
2022-09-07T04:22:53.661Z,99724.16
2022-09-07T04:25:23.463Z,99732.06
2022-09-07T04:27:52.744Z,99723.41
2022-09-07T04:30:21.889Z,99730.09
2022-09-07T04:32:51.271Z,99725.75
2022-09-07T04:35:23.023Z,99724.16
2022-09-07T04:37:52.296Z,99715.06
2022-09-07T04:40:21.638Z,99713.47
2022-09-07T04:42:51.331Z,99717.38
2022-09-07T04:45:20.582Z,99715.84
2022-09-07T04:47:49.996Z,99709.88
2022-09-07T04:50:19.792Z,99696.38
2022-09-07T04:52:50.654Z,99707.88
2022-09-07T04:55:19.821Z,99707.47
2022-09-07T04:57:51.226Z,99704.66
2022-09-07T05:00:20.683Z,99692.81
2022-09-07T05:02:49.939Z,99701.50
2022-09-07T05:05:19.711Z,99699.13
2022-09-07T05:07:50.311Z,99694.38
2022-09-07T05:10:19.691Z,99700.69
2022-09-07T05:12:48.955Z,99704.22
2022-09-07T05:15:18.231Z,99698.69
2022-09-07T05:17:47.518Z,99699.88
2022-09-07T05:20:20.190Z,99686.31
2022-09-07T05:22:59.603Z,99705.34
2022-09-07T05:25:30.264Z,99678.44
2022-09-07T05:27:59.838Z,99688.00
2022-09-07T05:33:18.299Z,99695.09
2022-09-07T05:35:58.521Z,99690.78
2022-09-07T05:38:29.805Z,99699.53
2022-09-07T05:40:59.511Z,99699.53
2022-09-07T05:43:28.710Z,99703.88
2022-09-07T05:45:57.967Z,99704.66
2022-09-07T05:48:27.558Z,99711.34
2022-09-07T05:50:56.863Z,99703.44
2022-09-07T05:53:26.081Z,99709.03
2022-09-07T05:56:03.958Z,99704.66
2022-09-07T05:58:36.772Z,99708.59
2022-09-07T06:01:09.261Z,99710.19
2022-09-07T06:03:40.731Z,99709.38
2022-09-07T06:06:12.567Z,99706.59
2022-09-07T06:08:47.718Z,99711.81
2022-09-07T06:11:20.885Z,99706.28
2022-09-07T06:13:50.554Z,99697.13
2022-09-07T06:16:20.950Z,99703.50
2022-09-07T06:18:51.311Z,99700.66
2022-09-07T06:21:22.141Z,99707.06
2022-09-07T06:23:52.668Z,99705.44
2022-09-07T06:26:23.290Z,99716.97
2022-09-07T06:28:57.209Z,99707.94
2022-09-07T06:31:28.520Z,99714.25
2022-09-07T06:33:58.916Z,99708.66
2022-09-07T06:36:29.740Z,99708.69
2022-09-07T06:39:01.574Z,99693.63
2022-09-07T06:44:23.504Z,99709.53
2022-09-07T06:49:29.051Z,99712.59
2022-09-07T06:51:58.272Z,99717.34
2022-09-07T06:57:18.104Z,99720.50
2022-09-07T06:59:47.399Z,99721.28
2022-09-07T07:02:16.586Z,99725.25
2022-09-07T07:04:46.730Z,99733.91
2022-09-07T07:07:16.202Z,99727.50
2022-09-07T07:09:45.477Z,99742.16
2022-09-07T07:12:14.739Z,99734.63
2022-09-07T07:14:45.485Z,99752.03
2022-09-07T07:17:14.878Z,99736.56
2022-09-07T07:19:44.190Z,99744.16
2022-09-07T07:22:42.603Z,99756.91
2022-09-07T07:25:03.516Z,99738.31
2022-09-07T07:27:32.898Z,99743.06
2022-09-07T07:30:03.860Z,99742.78
2022-09-07T07:32:33.200Z,99707.94
2022-09-07T07:35:02.444Z,99732.59
2022-09-07T07:37:32.434Z,99743.38
2022-09-07T07:40:19.123Z,99729.16
2022-09-07T07:42:50.999Z,99731.19
2022-09-07T07:48:13.786Z,99727.19
2022-09-07T07:50:42.911Z,99744.63
2022-09-07T07:56:02.148Z,99736.63
2022-09-07T07:58:32.675Z,99737.03
2022-09-07T08:01:08.158Z,99740.22
2022-09-07T08:03:40.320Z,99736.63
2022-09-07T08:06:11.632Z,99741.28
2022-09-07T08:08:43.153Z,99748.78
2022-09-07T08:11:16.940Z,99736.47
2022-09-07T08:13:49.604Z,99743.72
2022-09-07T08:16:20.363Z,99751.88
2022-09-07T08:18:49.738Z,99752.84
2022-09-07T08:21:18.983Z,99746.63
2022-09-07T08:23:48.168Z,99755.41
2022-09-07T08:26:17.342Z,99759.41
2022-09-07T08:28:46.825Z,99759.34
2022-09-07T08:31:17.908Z,99752.69
2022-09-07T08:33:48.508Z,99744.78
2022-09-07T08:36:19.992Z,99725.38
2022-09-07T08:38:49.588Z,99740.53
2022-09-07T08:41:47.421Z,99747.72
2022-09-07T08:44:24.923Z,99742.53
2022-09-07T08:47:00.417Z,99743.72
2022-09-07T08:49:41.066Z,99741.69
2022-09-07T08:52:15.377Z,99735.31
2022-09-07T08:54:58.497Z,99739.66
2022-09-07T08:57:34.035Z,99726.91
2022-09-07T09:00:08.741Z,99757.03
2022-09-07T09:02:43.562Z,99759.81
2022-09-07T09:05:40.807Z,99765.69
2022-09-07T09:08:25.534Z,99759.75
2022-09-07T09:11:05.385Z,99767.31
2022-09-07T09:13:48.855Z,99766.13
2022-09-07T09:16:24.885Z,99776.06
2022-09-07T09:19:20.261Z,99767.00
2022-09-07T09:21:53.834Z,99765.19
2022-09-07T09:24:33.595Z,99770.44
2022-09-07T09:27:02.733Z,99764.59
2022-09-07T09:29:32.227Z,99766.22
2022-09-07T09:32:01.448Z,99767.03
2022-09-07T09:34:34.684Z,99766.28
2022-09-07T09:37:06.045Z,99757.53
2022-09-07T09:39:36.929Z,99770.16
2022-09-07T09:42:18.610Z,99763.41
2022-09-07T09:44:48.661Z,99770.88
2022-09-07T09:47:32.748Z,99768.47
2022-09-07T09:50:08.102Z,99759.31
2022-09-07T09:52:47.946Z,99772.41
2022-09-07T09:55:35.466Z,99760.13
2022-09-07T10:06:23.758Z,99768.47
2022-09-07T10:08:58.623Z,99768.91
2022-09-07T10:14:43.432Z,99782.06
2022-09-07T10:17:15.883Z,99771.09
2022-09-07T10:19:45.254Z,99772.75
2022-09-07T10:22:33.249Z,99760.88
2022-09-07T10:25:04.810Z,99768.41
2022-09-07T10:27:37.063Z,99779.09
2022-09-07T10:30:16.323Z,99768.34
2022-09-07T10:33:03.180Z,99774.28
2022-09-07T10:35:36.842Z,99767.56
2022-09-07T10:38:17.676Z,99760.81
2022-09-07T10:40:54.964Z,99748.53
2022-09-07T10:43:42.497Z,99756.94
2022-09-07T10:49:25.679Z,99766.09
2022-09-07T10:52:14.390Z,99765.72
2022-09-07T10:54:55.283Z,99764.94
2022-09-07T10:57:39.316Z,99716.59
2022-09-07T11:00:14.467Z,99767.31
2022-09-07T11:03:26.694Z,99766.13
2022-09-07T11:06:12.155Z,99765.72
2022-09-07T11:09:17.836Z,99766.91
2022-09-07T11:12:03.586Z,99768.50
2022-09-07T11:14:43.758Z,99758.97
2022-09-07T11:17:19.385Z,99730.06
2022-09-07T11:19:57.511Z,99770.44
2022-09-07T11:22:36.339Z,99773.22
2022-09-07T11:25:34.031Z,99775.63
2022-09-07T11:28:09.978Z,99760.94
2022-09-07T11:30:47.287Z,99720.06
2022-09-07T11:33:22.977Z,99773.59
2022-09-07T11:35:58.932Z,99758.50
2022-09-07T11:38:35.382Z,99737.81
2022-09-07T11:41:24.841Z,99781.00
2022-09-07T11:44:07.982Z,99776.63
2022-09-07T11:46:46.002Z,99773.44
2022-09-07T11:49:21.334Z,99769.06
2022-09-07T11:51:55.048Z,99771.81
2022-09-07T11:54:39.710Z,99756.41
2022-09-07T11:57:38.276Z,99750.44
2022-09-07T12:00:19.061Z,99760.81
2022-09-07T12:03:34.548Z,99753.69
2022-09-07T12:07:03.637Z,99748.25
2022-09-07T12:09:58.533Z,99743.88
2022-09-07T12:13:14.963Z,99739.53
2022-09-07T12:15:55.136Z,99739.56
2022-09-07T12:18:56.826Z,99741.56
2022-09-07T12:21:41.605Z,99733.22
2022-09-07T12:24:42.495Z,99727.41
2022-09-07T12:27:40.034Z,99723.63
2022-09-07T12:30:57.187Z,99731.72
2022-09-07T12:33:36.990Z,99725.50
2022-09-07T12:36:50.154Z,99736.47
2022-09-07T12:39:28.620Z,99739.81
2022-09-07T12:42:32.518Z,99738.41
2022-09-07T12:45:51.229Z,99734.94
2022-09-07T12:48:44.493Z,99741.41
2022-09-07T12:54:23.499Z,99746.16
2022-09-07T13:00:04.475Z,99743.31
2022-09-07T13:09:34.495Z,99745.72
2022-09-07T13:15:42.373Z,99737.94
2022-09-07T13:18:28.635Z,99742.41
2022-09-07T13:21:37.567Z,99740.06
2022-09-07T13:24:46.321Z,99739.88
2022-09-07T13:27:47.035Z,99728.50
2022-09-07T13:30:46.883Z,99731.81
2022-09-07T13:33:48.341Z,99727.13
2022-09-07T13:36:45.951Z,99710.19
2022-09-07T13:39:21.075Z,99718.31
2022-09-07T13:41:54.379Z,99739.13
2022-09-07T13:44:26.997Z,99720.50
2022-09-07T13:47:10.312Z,99723.78
2022-09-07T13:49:58.892Z,99728.59
2022-09-07T13:52:45.044Z,99720.19
2022-09-07T13:55:34.372Z,99717.41
2022-09-07T13:58:17.954Z,99727.63
2022-09-07T14:00:56.068Z,99721.28
2022-09-07T14:03:28.981Z,99705.47
2022-09-07T14:06:18.181Z,99712.59
2022-09-07T14:08:51.650Z,99713.84
2022-09-07T14:11:23.457Z,99725.00
2022-09-07T14:14:16.218Z,99736.13
2022-09-07T14:16:49.265Z,99721.03
2022-09-07T14:19:26.097Z,99733.94
2022-09-07T14:22:03.402Z,99718.72
2022-09-07T14:24:37.525Z,99718.84
2022-09-07T14:27:19.635Z,99724.78
2022-09-07T14:29:49.130Z,99728.78
2022-09-07T14:32:23.637Z,99720.50
2022-09-07T14:34:53.504Z,99704.53
2022-09-07T14:37:24.994Z,99724.97
2022-09-07T14:39:56.477Z,99724.09
2022-09-07T14:42:26.680Z,99736.03
2022-09-07T14:45:34.039Z,99716.34
2022-09-07T14:48:16.386Z,99728.44
2022-09-07T14:51:01.003Z,99732.53
2022-09-07T14:53:39.592Z,99725.44
2022-09-07T14:56:12.304Z,99686.84
2022-09-07T14:58:41.755Z,99714.19
2022-09-07T15:04:20.293Z,99714.63
2022-09-07T15:07:04.793Z,99724.22
2022-09-07T15:09:38.735Z,99713.13
2022-09-07T15:12:29.991Z,99733.22
2022-09-07T15:15:22.141Z,99687.72
2022-09-07T15:17:51.983Z,99731.19
2022-09-07T15:20:37.439Z,99722.03
2022-09-07T15:23:10.478Z,99709.31
2022-09-07T15:25:41.220Z,99731.47
2022-09-07T15:34:10.137Z,99737.00
2022-09-07T15:36:41.183Z,99719.53
2022-09-07T15:39:18.559Z,99731.84
2022-09-07T15:41:48.109Z,99722.81
2022-09-07T15:44:24.955Z,99724.22
2022-09-07T15:49:50.250Z,99729.19
2022-09-07T15:52:20.881Z,99711.44
2022-09-07T15:54:50.205Z,99686.25
2022-09-07T16:00:12.931Z,99729.03
2022-09-07T16:05:31.739Z,99714.38
2022-09-07T16:10:55.550Z,99716.34
2022-09-07T16:13:25.728Z,99693.34
2022-09-07T16:15:59.964Z,99707.94
2022-09-07T16:18:33.034Z,99715.50
2022-09-07T16:21:11.857Z,99700.38
2022-09-07T16:23:44.477Z,99707.09
2022-09-07T16:26:14.816Z,99690.44
2022-09-07T16:28:46.827Z,99705.84
2022-09-07T16:31:22.352Z,99701.81
2022-09-07T16:33:51.936Z,99705.75
2022-09-07T16:36:23.704Z,99694.66
2022-09-07T16:38:59.174Z,99702.16
2022-09-07T16:41:31.681Z,99691.84
2022-09-07T16:44:01.111Z,99685.13
2022-09-07T16:46:34.865Z,99705.38
2022-09-07T16:49:05.628Z,99698.25
2022-09-07T16:51:35.671Z,99700.69
2022-09-07T16:54:04.985Z,99683.72
2022-09-07T16:56:38.821Z,99683.72
2022-09-07T16:59:10.504Z,99689.28
2022-09-07T17:01:41.146Z,99699.63
2022-09-07T17:04:11.637Z,99694.91
2022-09-07T17:06:41.768Z,99690.59
2022-09-07T17:09:15.026Z,99692.63
2022-09-07T17:11:44.420Z,99698.16
2022-09-07T17:14:14.138Z,99693.44
2022-09-07T17:16:44.901Z,99696.63
2022-09-07T17:19:31.852Z,99686.41
2022-09-07T17:22:01.782Z,99714.56
2022-09-07T17:24:32.252Z,99684.84
2022-09-07T17:27:03.135Z,99708.59
2022-09-07T17:29:37.021Z,99701.13
2022-09-07T17:32:24.888Z,99685.69
2022-09-07T17:34:55.500Z,99695.97
2022-09-07T17:37:25.663Z,99704.28
2022-09-07T17:39:55.076Z,99704.69
2022-09-07T17:42:26.287Z,99707.84
2022-09-07T17:45:14.917Z,99698.38
2022-09-07T17:47:45.838Z,99702.34
2022-09-07T17:50:15.555Z,99697.16
2022-09-07T17:52:46.035Z,99707.84
2022-09-07T17:55:15.519Z,99708.25
2022-09-07T17:57:44.712Z,99701.94
2022-09-07T18:00:15.881Z,99707.06
2022-09-07T18:02:46.595Z,99702.31
2022-09-07T18:05:15.886Z,99710.63
2022-09-07T18:07:45.083Z,99703.13
2022-09-07T18:10:14.571Z,99709.84
2022-09-07T18:12:43.752Z,99696.00
2022-09-07T18:15:13.115Z,99709.84
2022-09-07T18:17:42.441Z,99693.19
2022-09-07T18:20:13.105Z,99722.09
2022-09-07T18:22:42.553Z,99709.44
2022-09-07T18:25:11.952Z,99712.19
2022-09-07T18:27:41.397Z,99716.53
2022-09-07T18:30:12.318Z,99712.56
2022-09-07T18:32:41.514Z,99729.22
2022-09-07T18:35:12.724Z,99727.56
2022-09-07T18:37:42.045Z,99728.75
2022-09-07T18:40:12.210Z,99732.31
2022-09-07T18:42:42.044Z,99729.94
2022-09-07T18:45:27.761Z,99749.75
2022-09-07T18:47:57.501Z,99708.88
2022-09-07T18:50:28.039Z,99737.81
2022-09-07T18:53:04.126Z,99749.69
2022-09-07T18:55:43.502Z,99748.88
2022-09-07T18:58:12.645Z,99732.16
2022-09-07T19:00:45.337Z,99759.91
2022-09-07T19:03:14.972Z,99746.47
2022-09-07T19:05:50.543Z,99746.47
2022-09-07T19:08:28.634Z,99747.97
2022-09-07T19:10:58.107Z,99753.56
2022-09-07T19:13:27.617Z,99752.75
2022-09-07T19:16:07.723Z,99757.13
2022-09-07T19:18:40.540Z,99757.13
2022-09-07T19:21:16.707Z,99749.59
2022-09-07T19:23:53.501Z,99717.13
2022-09-07T19:26:23.424Z,99765.50
2022-09-07T19:28:54.981Z,99747.25
2022-09-07T19:31:25.560Z,99742.88
2022-09-07T19:33:56.991Z,99734.50
2022-09-07T19:36:28.537Z,99736.09
2022-09-07T19:38:58.059Z,99772.53
2022-09-07T19:41:28.318Z,99769.38
2022-09-07T19:44:01.878Z,99715.00
2022-09-07T19:46:31.685Z,99753.47
2022-09-07T19:49:02.952Z,99770.97
2022-09-07T19:51:39.352Z,99733.63
2022-09-07T19:54:15.401Z,99738.44
2022-09-07T19:56:46.643Z,99723.75
2022-09-07T19:59:16.370Z,99731.28
2022-09-07T20:01:48.017Z,99724.13
2022-09-07T20:04:20.545Z,99754.31
2022-09-07T20:06:56.519Z,99764.59
2022-09-07T20:09:29.429Z,99754.25
2022-09-07T20:12:01.973Z,99753.44
2022-09-07T20:14:31.287Z,99741.91
2022-09-07T20:17:01.454Z,99756.59
2022-09-07T20:19:31.085Z,99766.91
2022-09-07T20:22:01.824Z,99761.75
2022-09-07T20:24:31.450Z,99753.41
2022-09-07T20:27:02.829Z,99755.38
2022-09-07T20:29:32.522Z,99748.69
2022-09-07T20:32:05.258Z,99758.19
2022-09-07T20:34:37.880Z,99745.53
2022-09-07T20:37:08.346Z,99752.25
2022-09-07T20:39:39.604Z,99725.66
2022-09-07T20:42:09.173Z,99732.81
2022-09-07T20:44:38.588Z,99737.09
2022-09-07T20:47:07.979Z,99733.13
2022-09-07T20:49:37.438Z,99743.41
2022-09-07T20:52:08.168Z,99741.09
2022-09-07T20:54:38.934Z,99733.94
2022-09-07T20:57:08.213Z,99739.31
2022-09-07T20:59:37.473Z,99748.41
2022-09-07T21:02:07.173Z,99736.56
2022-09-07T21:04:36.995Z,99750.00
2022-09-07T21:07:07.621Z,99750.78
2022-09-07T21:09:37.069Z,99757.03
2022-09-07T21:12:06.630Z,99725.31
2022-09-07T21:14:36.177Z,99743.22
2022-09-07T21:17:05.860Z,99738.81
2022-09-07T21:19:36.976Z,99736.47
2022-09-07T21:22:07.698Z,99739.66
2022-09-07T21:24:36.914Z,99743.16
2022-09-07T21:27:07.024Z,99743.16
2022-09-07T21:29:36.351Z,99712.63
2022-09-07T21:32:06.217Z,99747.53
2022-09-07T21:34:35.453Z,99747.53
2022-09-07T21:37:04.683Z,99736.44
2022-09-07T21:39:35.356Z,99744.00
2022-09-07T21:42:05.568Z,99740.06
2022-09-07T21:44:34.711Z,99739.25
2022-09-07T21:47:03.882Z,99726.63
2022-09-07T21:49:33.228Z,99746.78
2022-09-07T21:52:02.708Z,99684.91
2022-09-07T21:54:31.834Z,99739.72
2022-09-07T21:57:02.443Z,99756.38
2022-09-07T21:59:32.002Z,99751.66
2022-09-07T22:02:01.319Z,99751.63
2022-09-07T22:04:31.227Z,99736.59
2022-09-07T22:07:00.521Z,99749.38
2022-09-07T22:09:29.681Z,99743.75
2022-09-07T22:12:00.192Z,99738.97
2022-09-07T22:14:30.766Z,99746.50
2022-09-07T22:17:00.291Z,99750.44
2022-09-07T22:19:29.481Z,99756.38
2022-09-07T22:21:58.919Z,99712.38
2022-09-07T22:24:28.343Z,99744.09
2022-09-07T22:26:57.556Z,99746.47
2022-09-07T22:29:27.038Z,99742.88
2022-09-07T22:31:57.875Z,99728.69
2022-09-07T22:34:28.449Z,99746.50
2022-09-07T22:36:58.384Z,99746.94
2022-09-07T22:39:27.863Z,99750.88
2022-09-07T22:41:57.029Z,99737.06
2022-09-07T22:44:27.611Z,99746.53
2022-09-07T22:46:58.207Z,99738.19
2022-09-07T22:49:27.735Z,99732.66
2022-09-07T22:51:57.046Z,99745.31
2022-09-07T22:54:26.169Z,99727.06
2022-09-07T22:56:55.370Z,99730.22
2022-09-07T22:59:24.498Z,99736.16
2022-09-07T23:01:54.118Z,99731.06
2022-09-07T23:04:27.434Z,99735.03
2022-09-07T23:07:00.204Z,99735.44
2022-09-07T23:09:29.682Z,99733.00
2022-09-07T23:11:58.865Z,99739.38
2022-09-07T23:14:28.180Z,99733.34
2022-09-07T23:16:57.558Z,99732.59
2022-09-07T23:19:28.252Z,99715.16
2022-09-07T23:21:57.446Z,99723.91
2022-09-07T23:24:26.650Z,99722.31
2022-09-07T23:26:55.831Z,99715.16
2022-09-07T23:29:25.009Z,99726.25
2022-09-07T23:31:54.203Z,99720.75
2022-09-07T23:34:23.412Z,99679.16
2022-09-07T23:36:54.145Z,99710.09
2022-09-07T23:39:23.555Z,99703.31
2022-09-07T23:41:52.729Z,99712.84
2022-09-07T23:44:22.172Z,99699.72
2022-09-07T23:46:51.473Z,99721.53
2022-09-07T23:49:21.503Z,99718.38
2022-09-07T23:51:50.694Z,99713.63
2022-09-07T23:54:21.305Z,99714.03
2022-09-07T23:56:50.484Z,99714.03
2022-09-07T23:59:19.656Z,99714.47
